sensor_id;sensor_type;location;lat;lon;timestamp;P1;durP1;ratioP1;P2;durP2;ratioP2
57341;SDS011;43175;51.002;18.316;2023-12-14T00:01:11;83.80;;;30.20;;
57341;SDS011;43175;51.002;18.316;2023-12-14T00:03:39;90.80;;;31.70;;
57341;SDS011;43175;51.002;18.316;2023-12-14T00:06:10;80.30;;;30.00;;
57341;SDS011;43175;51.002;18.316;2023-12-14T00:08:36;81.10;;;29.80;;
57341;SDS011;43175;51.002;18.316;2023-12-14T00:11:05;85.50;;;32.10;;
57341;SDS011;43175;51.002;18.316;2023-12-14T00:13:31;78.90;;;29.90;;
57341;SDS011;43175;51.002;18.316;2023-12-14T00:15:56;79.50;;;30.00;;
57341;SDS011;43175;51.002;18.316;2023-12-14T00:18:22;77.60;;;28.70;;
57341;SDS011;43175;51.002;18.316;2023-12-14T00:20:48;80.50;;;29.60;;
57341;SDS011;43175;51.002;18.316;2023-12-14T00:23:13;71.20;;;27.20;;
57341;SDS011;43175;51.002;18.316;2023-12-14T00:25:39;76.70;;;28.00;;
57341;SDS011;43175;51.002;18.316;2023-12-14T00:28:05;78.00;;;28.30;;
57341;SDS011;43175;51.002;18.316;2023-12-14T00:30:30;80.40;;;28.20;;
57341;SDS011;43175;51.002;18.316;2023-12-14T00:32:56;84.80;;;29.60;;
57341;SDS011;43175;51.002;18.316;2023-12-14T00:35:21;88.10;;;30.70;;
57341;SDS011;43175;51.002;18.316;2023-12-14T00:37:47;86.70;;;30.40;;
57341;SDS011;43175;51.002;18.316;2023-12-14T00:40:13;77.70;;;27.70;;
57341;SDS011;43175;51.002;18.316;2023-12-14T00:42:39;78.00;;;27.30;;
57341;SDS011;43175;51.002;18.316;2023-12-14T00:45:04;84.10;;;28.60;;
57341;SDS011;43175;51.002;18.316;2023-12-14T00:47:30;87.20;;;27.80;;
57341;SDS011;43175;51.002;18.316;2023-12-14T00:49:57;84.80;;;28.50;;
57341;SDS011;43175;51.002;18.316;2023-12-14T00:52:22;86.60;;;29.30;;
57341;SDS011;43175;51.002;18.316;2023-12-14T00:54:48;92.30;;;29.20;;
57341;SDS011;43175;51.002;18.316;2023-12-14T00:57:14;81.00;;;28.40;;
57341;SDS011;43175;51.002;18.316;2023-12-14T00:59:39;87.00;;;28.10;;
57341;SDS011;43175;51.002;18.316;2023-12-14T01:02:05;81.90;;;28.90;;
57341;SDS011;43175;51.002;18.316;2023-12-14T01:04:31;82.60;;;27.60;;
57341;SDS011;43175;51.002;18.316;2023-12-14T01:06:57;80.80;;;29.20;;
57341;SDS011;43175;51.002;18.316;2023-12-14T01:09:23;82.20;;;27.80;;
57341;SDS011;43175;51.002;18.316;2023-12-14T01:11:49;91.40;;;29.10;;
57341;SDS011;43175;51.002;18.316;2023-12-14T01:14:14;87.20;;;28.40;;
57341;SDS011;43175;51.002;18.316;2023-12-14T01:16:40;78.60;;;28.10;;
57341;SDS011;43175;51.002;18.316;2023-12-14T01:19:05;82.10;;;27.60;;
57341;SDS011;43175;51.002;18.316;2023-12-14T01:21:31;83.80;;;29.70;;
57341;SDS011;43175;51.002;18.316;2023-12-14T01:23:57;72.80;;;26.30;;
57341;SDS011;43175;51.002;18.316;2023-12-14T01:26:23;74.50;;;27.30;;
57341;SDS011;43175;51.002;18.316;2023-12-14T01:28:49;82.00;;;28.50;;
57341;SDS011;43175;51.002;18.316;2023-12-14T01:31:14;84.40;;;28.20;;
57341;SDS011;43175;51.002;18.316;2023-12-14T01:33:40;83.40;;;29.50;;
57341;SDS011;43175;51.002;18.316;2023-12-14T01:36:06;80.20;;;28.70;;
57341;SDS011;43175;51.002;18.316;2023-12-14T01:38:32;77.10;;;27.60;;
57341;SDS011;43175;51.002;18.316;2023-12-14T01:40:58;79.40;;;27.80;;
57341;SDS011;43175;51.002;18.316;2023-12-14T01:43:24;77.10;;;28.70;;
57341;SDS011;43175;51.002;18.316;2023-12-14T01:45:50;79.90;;;28.10;;
57341;SDS011;43175;51.002;18.316;2023-12-14T01:48:15;85.50;;;28.20;;
57341;SDS011;43175;51.002;18.316;2023-12-14T01:50:41;80.60;;;28.00;;
57341;SDS011;43175;51.002;18.316;2023-12-14T01:53:07;79.50;;;28.00;;
57341;SDS011;43175;51.002;18.316;2023-12-14T01:55:32;89.20;;;28.50;;
57341;SDS011;43175;51.002;18.316;2023-12-14T01:57:59;90.30;;;28.30;;
57341;SDS011;43175;51.002;18.316;2023-12-14T02:00:27;81.90;;;27.70;;
57341;SDS011;43175;51.002;18.316;2023-12-14T02:03:00;79.70;;;28.30;;
57341;SDS011;43175;51.002;18.316;2023-12-14T02:05:26;76.70;;;27.10;;
57341;SDS011;43175;51.002;18.316;2023-12-14T02:07:52;79.20;;;28.20;;
57341;SDS011;43175;51.002;18.316;2023-12-14T02:10:17;81.10;;;27.80;;
57341;SDS011;43175;51.002;18.316;2023-12-14T02:12:43;71.70;;;26.50;;
57341;SDS011;43175;51.002;18.316;2023-12-14T02:15:09;78.40;;;26.10;;
57341;SDS011;43175;51.002;18.316;2023-12-14T02:17:34;85.10;;;27.50;;
57341;SDS011;43175;51.002;18.316;2023-12-14T02:20:00;74.20;;;25.30;;
57341;SDS011;43175;51.002;18.316;2023-12-14T02:22:26;74.90;;;27.30;;
57341;SDS011;43175;51.002;18.316;2023-12-14T02:24:52;77.40;;;27.00;;
57341;SDS011;43175;51.002;18.316;2023-12-14T02:27:17;73.40;;;25.80;;
57341;SDS011;43175;51.002;18.316;2023-12-14T02:29:43;78.70;;;26.30;;
57341;SDS011;43175;51.002;18.316;2023-12-14T02:32:09;77.00;;;26.60;;
57341;SDS011;43175;51.002;18.316;2023-12-14T02:34:34;81.20;;;28.20;;
57341;SDS011;43175;51.002;18.316;2023-12-14T02:37:00;77.40;;;28.20;;
57341;SDS011;43175;51.002;18.316;2023-12-14T02:39:26;86.70;;;27.00;;
57341;SDS011;43175;51.002;18.316;2023-12-14T02:41:51;83.90;;;28.80;;
57341;SDS011;43175;51.002;18.316;2023-12-14T02:44:17;85.60;;;29.80;;
57341;SDS011;43175;51.002;18.316;2023-12-14T02:46:42;86.30;;;27.90;;
57341;SDS011;43175;51.002;18.316;2023-12-14T02:49:08;88.70;;;28.40;;
57341;SDS011;43175;51.002;18.316;2023-12-14T02:51:34;89.10;;;28.40;;
57341;SDS011;43175;51.002;18.316;2023-12-14T02:53:59;83.10;;;29.30;;
57341;SDS011;43175;51.002;18.316;2023-12-14T02:56:25;93.80;;;28.40;;
57341;SDS011;43175;51.002;18.316;2023-12-14T02:58:50;98.30;;;29.00;;
57341;SDS011;43175;51.002;18.316;2023-12-14T03:01:19;91.10;;;29.20;;
57341;SDS011;43175;51.002;18.316;2023-12-14T03:03:46;101.40;;;29.50;;
57341;SDS011;43175;51.002;18.316;2023-12-14T03:06:12;99.00;;;28.50;;
57341;SDS011;43175;51.002;18.316;2023-12-14T03:08:38;100.30;;;29.20;;
57341;SDS011;43175;51.002;18.316;2023-12-14T03:11:03;95.50;;;28.00;;
57341;SDS011;43175;51.002;18.316;2023-12-14T03:13:29;94.30;;;27.50;;
57341;SDS011;43175;51.002;18.316;2023-12-14T03:15:55;104.70;;;29.90;;
57341;SDS011;43175;51.002;18.316;2023-12-14T03:18:20;109.10;;;27.30;;
57341;SDS011;43175;51.002;18.316;2023-12-14T03:20:46;103.90;;;28.60;;
57341;SDS011;43175;51.002;18.316;2023-12-14T03:23:12;108.30;;;28.50;;
57341;SDS011;43175;51.002;18.316;2023-12-14T03:25:37;109.70;;;28.40;;
57341;SDS011;43175;51.002;18.316;2023-12-14T03:28:03;112.80;;;28.10;;
57341;SDS011;43175;51.002;18.316;2023-12-14T03:30:29;113.00;;;27.50;;
57341;SDS011;43175;51.002;18.316;2023-12-14T03:32:54;107.40;;;27.80;;
57341;SDS011;43175;51.002;18.316;2023-12-14T03:35:20;117.00;;;28.30;;
57341;SDS011;43175;51.002;18.316;2023-12-14T03:37:46;116.50;;;29.00;;
57341;SDS011;43175;51.002;18.316;2023-12-14T03:40:11;109.10;;;27.90;;
57341;SDS011;43175;51.002;18.316;2023-12-14T03:42:37;120.20;;;28.80;;
57341;SDS011;43175;51.002;18.316;2023-12-14T03:45:03;114.10;;;28.00;;
57341;SDS011;43175;51.002;18.316;2023-12-14T03:47:29;114.00;;;29.00;;
57341;SDS011;43175;51.002;18.316;2023-12-14T03:49:55;112.40;;;29.70;;
57341;SDS011;43175;51.002;18.316;2023-12-14T03:52:21;104.80;;;28.80;;
57341;SDS011;43175;51.002;18.316;2023-12-14T03:54:47;117.60;;;30.20;;
57341;SDS011;43175;51.002;18.316;2023-12-14T03:57:13;104.90;;;27.90;;
57341;SDS011;43175;51.002;18.316;2023-12-14T03:59:39;105.90;;;28.60;;
57341;SDS011;43175;51.002;18.316;2023-12-14T04:02:05;112.50;;;28.60;;
57341;SDS011;43175;51.002;18.316;2023-12-14T04:04:31;106.90;;;28.20;;
57341;SDS011;43175;51.002;18.316;2023-12-14T04:06:57;117.50;;;28.40;;
57341;SDS011;43175;51.002;18.316;2023-12-14T04:09:22;112.40;;;30.60;;
57341;SDS011;43175;51.002;18.316;2023-12-14T04:11:48;109.80;;;29.80;;
57341;SDS011;43175;51.002;18.316;2023-12-14T04:14:14;110.00;;;30.50;;
57341;SDS011;43175;51.002;18.316;2023-12-14T04:16:39;100.40;;;28.90;;
57341;SDS011;43175;51.002;18.316;2023-12-14T04:19:05;117.10;;;29.80;;
57341;SDS011;43175;51.002;18.316;2023-12-14T04:21:35;119.90;;;31.00;;
57341;SDS011;43175;51.002;18.316;2023-12-14T04:24:02;112.80;;;28.20;;
57341;SDS011;43175;51.002;18.316;2023-12-14T04:26:28;125.70;;;31.60;;
57341;SDS011;43175;51.002;18.316;2023-12-14T04:28:54;127.00;;;30.50;;
57341;SDS011;43175;51.002;18.316;2023-12-14T04:31:19;113.70;;;29.30;;
57341;SDS011;43175;51.002;18.316;2023-12-14T04:33:45;133.70;;;31.00;;
57341;SDS011;43175;51.002;18.316;2023-12-14T04:36:11;142.90;;;31.00;;
57341;SDS011;43175;51.002;18.316;2023-12-14T04:38:37;136.70;;;30.80;;
57341;SDS011;43175;51.002;18.316;2023-12-14T04:41:03;126.90;;;30.30;;
57341;SDS011;43175;51.002;18.316;2023-12-14T04:43:29;140.50;;;32.00;;
57341;SDS011;43175;51.002;18.316;2023-12-14T04:45:55;137.30;;;31.70;;
57341;SDS011;43175;51.002;18.316;2023-12-14T04:48:21;137.80;;;30.20;;
57341;SDS011;43175;51.002;18.316;2023-12-14T04:50:47;148.00;;;31.80;;
57341;SDS011;43175;51.002;18.316;2023-12-14T04:53:12;128.00;;;31.40;;
57341;SDS011;43175;51.002;18.316;2023-12-14T04:55:38;148.20;;;29.90;;
57341;SDS011;43175;51.002;18.316;2023-12-14T04:58:04;143.90;;;30.50;;
57341;SDS011;43175;51.002;18.316;2023-12-14T05:00:29;145.60;;;31.70;;
57341;SDS011;43175;51.002;18.316;2023-12-14T05:02:55;141.70;;;31.80;;
57341;SDS011;43175;51.002;18.316;2023-12-14T05:05:20;131.00;;;30.40;;
57341;SDS011;43175;51.002;18.316;2023-12-14T05:07:46;117.80;;;30.10;;
57341;SDS011;43175;51.002;18.316;2023-12-14T05:10:12;132.70;;;30.90;;
57341;SDS011;43175;51.002;18.316;2023-12-14T05:12:37;130.10;;;31.60;;
57341;SDS011;43175;51.002;18.316;2023-12-14T05:15:05;133.10;;;30.20;;
57341;SDS011;43175;51.002;18.316;2023-12-14T05:17:31;135.10;;;30.80;;
57341;SDS011;43175;51.002;18.316;2023-12-14T05:19:57;146.00;;;31.00;;
57341;SDS011;43175;51.002;18.316;2023-12-14T05:22:24;154.60;;;32.90;;
57341;SDS011;43175;51.002;18.316;2023-12-14T05:24:49;152.10;;;31.30;;
57341;SDS011;43175;51.002;18.316;2023-12-14T05:27:15;182.50;;;33.60;;
57341;SDS011;43175;51.002;18.316;2023-12-14T05:29:41;178.00;;;31.70;;
57341;SDS011;43175;51.002;18.316;2023-12-14T05:32:07;221.10;;;34.40;;
57341;SDS011;43175;51.002;18.316;2023-12-14T05:34:33;216.60;;;33.60;;
57341;SDS011;43175;51.002;18.316;2023-12-14T05:36:59;227.90;;;32.70;;
57341;SDS011;43175;51.002;18.316;2023-12-14T05:39:24;191.10;;;32.20;;
57341;SDS011;43175;51.002;18.316;2023-12-14T05:41:50;162.90;;;31.40;;
57341;SDS011;43175;51.002;18.316;2023-12-14T05:44:15;174.90;;;32.30;;
57341;SDS011;43175;51.002;18.316;2023-12-14T05:46:41;168.20;;;33.30;;
57341;SDS011;43175;51.002;18.316;2023-12-14T05:49:07;181.90;;;34.10;;
57341;SDS011;43175;51.002;18.316;2023-12-14T05:51:33;222.30;;;32.50;;
57341;SDS011;43175;51.002;18.316;2023-12-14T05:53:59;239.50;;;33.40;;
57341;SDS011;43175;51.002;18.316;2023-12-14T05:56:25;224.40;;;33.60;;
57341;SDS011;43175;51.002;18.316;2023-12-14T05:58:51;209.80;;;33.50;;
57341;SDS011;43175;51.002;18.316;2023-12-14T06:01:20;216.50;;;33.10;;
57341;SDS011;43175;51.002;18.316;2023-12-14T06:03:45;171.20;;;30.60;;
57341;SDS011;43175;51.002;18.316;2023-12-14T06:06:11;193.20;;;31.10;;
57341;SDS011;43175;51.002;18.316;2023-12-14T06:08:40;186.70;;;31.00;;
57341;SDS011;43175;51.002;18.316;2023-12-14T06:11:07;150.00;;;30.90;;
57341;SDS011;43175;51.002;18.316;2023-12-14T06:13:33;160.40;;;30.50;;
57341;SDS011;43175;51.002;18.316;2023-12-14T06:16:00;185.50;;;29.90;;
57341;SDS011;43175;51.002;18.316;2023-12-14T06:18:25;150.10;;;29.50;;
57341;SDS011;43175;51.002;18.316;2023-12-14T06:20:51;132.50;;;28.00;;
57341;SDS011;43175;51.002;18.316;2023-12-14T06:23:17;139.30;;;28.90;;
57341;SDS011;43175;51.002;18.316;2023-12-14T06:25:43;137.20;;;29.60;;
57341;SDS011;43175;51.002;18.316;2023-12-14T06:28:09;136.80;;;28.60;;
57341;SDS011;43175;51.002;18.316;2023-12-14T06:30:34;147.20;;;29.40;;
57341;SDS011;43175;51.002;18.316;2023-12-14T06:33:00;127.30;;;28.00;;
57341;SDS011;43175;51.002;18.316;2023-12-14T06:35:25;131.90;;;27.90;;
57341;SDS011;43175;51.002;18.316;2023-12-14T06:37:51;138.10;;;27.80;;
57341;SDS011;43175;51.002;18.316;2023-12-14T06:40:17;133.50;;;28.20;;
57341;SDS011;43175;51.002;18.316;2023-12-14T06:42:44;118.00;;;28.40;;
57341;SDS011;43175;51.002;18.316;2023-12-14T06:45:10;121.00;;;26.70;;
57341;SDS011;43175;51.002;18.316;2023-12-14T06:47:36;122.10;;;27.70;;
57341;SDS011;43175;51.002;18.316;2023-12-14T06:50:01;131.50;;;28.90;;
57341;SDS011;43175;51.002;18.316;2023-12-14T06:52:27;130.90;;;28.50;;
57341;SDS011;43175;51.002;18.316;2023-12-14T06:54:53;129.10;;;27.90;;
57341;SDS011;43175;51.002;18.316;2023-12-14T06:57:19;133.30;;;28.10;;
57341;SDS011;43175;51.002;18.316;2023-12-14T06:59:44;135.80;;;28.10;;
57341;SDS011;43175;51.002;18.316;2023-12-14T07:02:10;133.60;;;28.80;;
57341;SDS011;43175;51.002;18.316;2023-12-14T07:04:36;131.40;;;28.80;;
57341;SDS011;43175;51.002;18.316;2023-12-14T07:07:01;134.60;;;29.80;;
57341;SDS011;43175;51.002;18.316;2023-12-14T07:09:27;131.00;;;27.70;;
57341;SDS011;43175;51.002;18.316;2023-12-14T07:11:53;135.60;;;28.60;;
57341;SDS011;43175;51.002;18.316;2023-12-14T07:14:19;129.60;;;28.50;;
57341;SDS011;43175;51.002;18.316;2023-12-14T07:16:44;122.30;;;28.60;;
57341;SDS011;43175;51.002;18.316;2023-12-14T07:19:10;125.70;;;28.20;;
57341;SDS011;43175;51.002;18.316;2023-12-14T07:21:39;115.40;;;27.60;;
57341;SDS011;43175;51.002;18.316;2023-12-14T07:24:05;122.90;;;27.80;;
57341;SDS011;43175;51.002;18.316;2023-12-14T07:26:31;135.20;;;30.50;;
57341;SDS011;43175;51.002;18.316;2023-12-14T07:28:56;124.90;;;28.30;;
57341;SDS011;43175;51.002;18.316;2023-12-14T07:31:22;131.10;;;28.20;;
57341;SDS011;43175;51.002;18.316;2023-12-14T07:33:47;129.30;;;29.20;;
57341;SDS011;43175;51.002;18.316;2023-12-14T07:36:13;118.60;;;26.80;;
57341;SDS011;43175;51.002;18.316;2023-12-14T07:38:39;112.80;;;27.40;;
57341;SDS011;43175;51.002;18.316;2023-12-14T07:41:05;99.20;;;25.30;;
57341;SDS011;43175;51.002;18.316;2023-12-14T07:43:31;88.80;;;24.40;;
57341;SDS011;43175;51.002;18.316;2023-12-14T07:45:57;110.20;;;25.50;;
57341;SDS011;43175;51.002;18.316;2023-12-14T07:48:23;95.10;;;25.20;;
57341;SDS011;43175;51.002;18.316;2023-12-14T07:50:49;103.60;;;25.60;;
57341;SDS011;43175;51.002;18.316;2023-12-14T07:53:15;101.30;;;25.70;;
57341;SDS011;43175;51.002;18.316;2023-12-14T07:55:40;97.40;;;26.50;;
57341;SDS011;43175;51.002;18.316;2023-12-14T07:58:07;112.90;;;26.20;;
57341;SDS011;43175;51.002;18.316;2023-12-14T08:00:33;92.60;;;26.40;;
57341;SDS011;43175;51.002;18.316;2023-12-14T08:02:58;104.20;;;25.90;;
57341;SDS011;43175;51.002;18.316;2023-12-14T08:05:24;121.20;;;25.80;;
57341;SDS011;43175;51.002;18.316;2023-12-14T08:07:50;110.80;;;26.60;;
57341;SDS011;43175;51.002;18.316;2023-12-14T08:10:18;116.10;;;26.50;;
57341;SDS011;43175;51.002;18.316;2023-12-14T08:12:44;109.00;;;26.70;;
57341;SDS011;43175;51.002;18.316;2023-12-14T08:15:10;99.00;;;25.80;;
57341;SDS011;43175;51.002;18.316;2023-12-14T08:17:37;117.80;;;26.90;;
57341;SDS011;43175;51.002;18.316;2023-12-14T08:20:03;104.30;;;25.20;;
57341;SDS011;43175;51.002;18.316;2023-12-14T08:22:34;98.40;;;24.80;;
57341;SDS011;43175;51.002;18.316;2023-12-14T08:25:00;105.80;;;26.00;;
57341;SDS011;43175;51.002;18.316;2023-12-14T08:27:26;110.40;;;27.30;;
57341;SDS011;43175;51.002;18.316;2023-12-14T08:29:51;107.20;;;25.80;;
57341;SDS011;43175;51.002;18.316;2023-12-14T08:32:17;111.10;;;25.60;;
57341;SDS011;43175;51.002;18.316;2023-12-14T08:34:42;90.60;;;25.20;;
57341;SDS011;43175;51.002;18.316;2023-12-14T08:37:08;98.70;;;26.20;;
57341;SDS011;43175;51.002;18.316;2023-12-14T08:39:34;93.40;;;26.30;;
57341;SDS011;43175;51.002;18.316;2023-12-14T08:42:00;108.10;;;27.10;;
57341;SDS011;43175;51.002;18.316;2023-12-14T08:44:26;107.70;;;25.70;;
57341;SDS011;43175;51.002;18.316;2023-12-14T08:46:51;88.30;;;24.30;;
57341;SDS011;43175;51.002;18.316;2023-12-14T08:49:17;78.90;;;23.40;;
57341;SDS011;43175;51.002;18.316;2023-12-14T08:51:43;83.10;;;24.00;;
57341;SDS011;43175;51.002;18.316;2023-12-14T08:54:08;86.70;;;24.20;;
57341;SDS011;43175;51.002;18.316;2023-12-14T08:56:34;121.40;;;28.50;;
57341;SDS011;43175;51.002;18.316;2023-12-14T08:59:00;120.00;;;30.20;;
57341;SDS011;43175;51.002;18.316;2023-12-14T09:01:29;131.30;;;29.00;;
57341;SDS011;43175;51.002;18.316;2023-12-14T09:03:55;132.90;;;31.60;;
57341;SDS011;43175;51.002;18.316;2023-12-14T09:06:20;115.70;;;29.10;;
57341;SDS011;43175;51.002;18.316;2023-12-14T09:08:46;97.30;;;26.90;;
57341;SDS011;43175;51.002;18.316;2023-12-14T09:11:12;91.60;;;27.60;;
57341;SDS011;43175;51.002;18.316;2023-12-14T09:13:38;107.50;;;28.40;;
57341;SDS011;43175;51.002;18.316;2023-12-14T09:16:04;107.30;;;27.80;;
57341;SDS011;43175;51.002;18.316;2023-12-14T09:18:30;88.70;;;26.80;;
57341;SDS011;43175;51.002;18.316;2023-12-14T09:20:56;100.90;;;27.50;;
57341;SDS011;43175;51.002;18.316;2023-12-14T09:23:21;94.10;;;26.80;;
57341;SDS011;43175;51.002;18.316;2023-12-14T09:25:47;85.40;;;25.20;;
57341;SDS011;43175;51.002;18.316;2023-12-14T09:28:13;76.50;;;25.30;;
57341;SDS011;43175;51.002;18.316;2023-12-14T09:30:38;80.60;;;25.30;;
57341;SDS011;43175;51.002;18.316;2023-12-14T09:33:04;78.30;;;25.90;;
57341;SDS011;43175;51.002;18.316;2023-12-14T09:35:31;71.30;;;23.60;;
57341;SDS011;43175;51.002;18.316;2023-12-14T09:37:57;66.30;;;23.10;;
57341;SDS011;43175;51.002;18.316;2023-12-14T09:40:22;67.60;;;23.90;;
57341;SDS011;43175;51.002;18.316;2023-12-14T09:42:50;65.50;;;23.90;;
57341;SDS011;43175;51.002;18.316;2023-12-14T09:45:16;83.80;;;27.50;;
57341;SDS011;43175;51.002;18.316;2023-12-14T09:47:42;75.00;;;25.50;;
57341;SDS011;43175;51.002;18.316;2023-12-14T09:50:10;69.20;;;25.30;;
57341;SDS011;43175;51.002;18.316;2023-12-14T09:52:36;74.20;;;26.90;;
57341;SDS011;43175;51.002;18.316;2023-12-14T09:55:01;84.50;;;26.40;;
57341;SDS011;43175;51.002;18.316;2023-12-14T09:57:29;78.80;;;26.50;;
57341;SDS011;43175;51.002;18.316;2023-12-14T09:59:55;74.60;;;26.00;;
57341;SDS011;43175;51.002;18.316;2023-12-14T10:02:25;69.40;;;25.50;;
57341;SDS011;43175;51.002;18.316;2023-12-14T10:04:52;65.30;;;24.00;;
57341;SDS011;43175;51.002;18.316;2023-12-14T10:07:18;55.50;;;21.90;;
57341;SDS011;43175;51.002;18.316;2023-12-14T10:09:45;54.30;;;22.50;;
57341;SDS011;43175;51.002;18.316;2023-12-14T10:12:11;60.20;;;25.30;;
57341;SDS011;43175;51.002;18.316;2023-12-14T10:14:36;66.40;;;24.40;;
57341;SDS011;43175;51.002;18.316;2023-12-14T10:17:14;65.60;;;24.80;;
57341;SDS011;43175;51.002;18.316;2023-12-14T10:19:42;71.20;;;26.80;;
57341;SDS011;43175;51.002;18.316;2023-12-14T10:22:10;75.90;;;26.10;;
57341;SDS011;43175;51.002;18.316;2023-12-14T10:24:36;75.40;;;27.30;;
57341;SDS011;43175;51.002;18.316;2023-12-14T10:27:05;69.80;;;26.00;;
57341;SDS011;43175;51.002;18.316;2023-12-14T10:29:34;71.70;;;26.00;;
57341;SDS011;43175;51.002;18.316;2023-12-14T10:32:04;64.30;;;25.00;;
57341;SDS011;43175;51.002;18.316;2023-12-14T10:34:32;63.90;;;25.40;;
57341;SDS011;43175;51.002;18.316;2023-12-14T10:36:59;61.40;;;25.60;;
57341;SDS011;43175;51.002;18.316;2023-12-14T10:39:25;55.60;;;24.80;;
57341;SDS011;43175;51.002;18.316;2023-12-14T10:41:52;55.80;;;24.10;;
57341;SDS011;43175;51.002;18.316;2023-12-14T10:44:21;58.70;;;24.30;;
57341;SDS011;43175;51.002;18.316;2023-12-14T10:46:50;66.40;;;27.90;;
57341;SDS011;43175;51.002;18.316;2023-12-14T10:49:21;63.80;;;26.40;;
57341;SDS011;43175;51.002;18.316;2023-12-14T10:51:49;67.40;;;25.10;;
57341;SDS011;43175;51.002;18.316;2023-12-14T10:54:15;69.40;;;27.80;;
57341;SDS011;43175;51.002;18.316;2023-12-14T10:56:41;66.70;;;25.80;;
57341;SDS011;43175;51.002;18.316;2023-12-14T10:59:07;67.60;;;26.60;;
57341;SDS011;43175;51.002;18.316;2023-12-14T11:01:33;77.20;;;26.30;;
57341;SDS011;43175;51.002;18.316;2023-12-14T11:04:03;78.60;;;27.30;;
57341;SDS011;43175;51.002;18.316;2023-12-14T11:06:32;74.50;;;26.10;;
57341;SDS011;43175;51.002;18.316;2023-12-14T11:08:59;75.60;;;27.80;;
57341;SDS011;43175;51.002;18.316;2023-12-14T11:11:41;77.20;;;27.20;;
57341;SDS011;43175;51.002;18.316;2023-12-14T11:14:12;71.10;;;26.20;;
57341;SDS011;43175;51.002;18.316;2023-12-14T11:16:38;79.70;;;27.30;;
57341;SDS011;43175;51.002;18.316;2023-12-14T11:21:47;72.30;;;24.90;;
57341;SDS011;43175;51.002;18.316;2023-12-14T11:24:18;69.10;;;25.00;;
57341;SDS011;43175;51.002;18.316;2023-12-14T11:26:45;65.80;;;25.50;;
57341;SDS011;43175;51.002;18.316;2023-12-14T11:29:10;77.00;;;27.20;;
57341;SDS011;43175;51.002;18.316;2023-12-14T11:31:37;72.20;;;26.80;;
57341;SDS011;43175;51.002;18.316;2023-12-14T11:34:02;75.50;;;28.00;;
57341;SDS011;43175;51.002;18.316;2023-12-14T11:36:32;79.60;;;27.40;;
57341;SDS011;43175;51.002;18.316;2023-12-14T11:38:58;71.10;;;27.10;;
57341;SDS011;43175;51.002;18.316;2023-12-14T11:41:24;66.50;;;25.50;;
57341;SDS011;43175;51.002;18.316;2023-12-14T11:43:54;60.50;;;24.30;;
57341;SDS011;43175;51.002;18.316;2023-12-14T11:46:20;52.80;;;22.50;;
57341;SDS011;43175;51.002;18.316;2023-12-14T11:48:46;53.30;;;24.20;;
57341;SDS011;43175;51.002;18.316;2023-12-14T11:51:16;53.10;;;23.70;;
57341;SDS011;43175;51.002;18.316;2023-12-14T11:53:43;57.20;;;23.50;;
57341;SDS011;43175;51.002;18.316;2023-12-14T11:56:11;54.20;;;23.60;;
57341;SDS011;43175;51.002;18.316;2023-12-14T11:58:39;55.00;;;23.50;;
57341;SDS011;43175;51.002;18.316;2023-12-14T12:01:16;62.70;;;25.40;;
57341;SDS011;43175;51.002;18.316;2023-12-14T12:03:43;65.80;;;26.40;;
57341;SDS011;43175;51.002;18.316;2023-12-14T12:06:19;60.90;;;24.70;;
57341;SDS011;43175;51.002;18.316;2023-12-14T12:08:53;58.20;;;23.30;;
57341;SDS011;43175;51.002;18.316;2023-12-14T12:11:19;54.10;;;23.20;;
57341;SDS011;43175;51.002;18.316;2023-12-14T12:13:50;58.40;;;24.20;;
57341;SDS011;43175;51.002;18.316;2023-12-14T12:16:17;52.00;;;22.40;;
57341;SDS011;43175;51.002;18.316;2023-12-14T12:18:42;50.10;;;21.80;;
57341;SDS011;43175;51.002;18.316;2023-12-14T12:21:08;49.30;;;21.60;;
57341;SDS011;43175;51.002;18.316;2023-12-14T12:23:36;54.30;;;23.30;;
57341;SDS011;43175;51.002;18.316;2023-12-14T12:26:02;52.70;;;22.90;;
57341;SDS011;43175;51.002;18.316;2023-12-14T12:28:29;57.10;;;25.00;;
57341;SDS011;43175;51.002;18.316;2023-12-14T12:30:55;61.70;;;25.80;;
57341;SDS011;43175;51.002;18.316;2023-12-14T12:33:21;68.10;;;28.10;;
57341;SDS011;43175;51.002;18.316;2023-12-14T12:35:47;68.90;;;28.20;;
57341;SDS011;43175;51.002;18.316;2023-12-14T12:38:13;66.50;;;26.40;;
57341;SDS011;43175;51.002;18.316;2023-12-14T12:40:39;68.70;;;25.70;;
57341;SDS011;43175;51.002;18.316;2023-12-14T12:43:05;66.80;;;25.80;;
57341;SDS011;43175;51.002;18.316;2023-12-14T12:45:31;69.50;;;25.90;;
57341;SDS011;43175;51.002;18.316;2023-12-14T12:47:57;68.70;;;25.70;;
57341;SDS011;43175;51.002;18.316;2023-12-14T12:50:23;68.00;;;24.50;;
57341;SDS011;43175;51.002;18.316;2023-12-14T12:52:49;63.80;;;23.00;;
57341;SDS011;43175;51.002;18.316;2023-12-14T12:55:16;58.70;;;21.90;;
57341;SDS011;43175;51.002;18.316;2023-12-14T12:57:42;54.60;;;22.10;;
57341;SDS011;43175;51.002;18.316;2023-12-14T13:00:08;64.40;;;25.40;;
57341;SDS011;43175;51.002;18.316;2023-12-14T13:02:37;62.20;;;23.90;;
57341;SDS011;43175;51.002;18.316;2023-12-14T13:05:05;68.10;;;24.80;;
57341;SDS011;43175;51.002;18.316;2023-12-14T13:07:33;58.20;;;24.20;;
57341;SDS011;43175;51.002;18.316;2023-12-14T13:10:05;71.90;;;24.90;;
57341;SDS011;43175;51.002;18.316;2023-12-14T13:12:31;69.00;;;25.10;;
57341;SDS011;43175;51.002;18.316;2023-12-14T13:14:57;72.70;;;25.20;;
57341;SDS011;43175;51.002;18.316;2023-12-14T13:17:24;65.20;;;24.90;;
57341;SDS011;43175;51.002;18.316;2023-12-14T13:19:50;65.20;;;24.80;;
57341;SDS011;43175;51.002;18.316;2023-12-14T13:22:16;55.50;;;22.80;;
57341;SDS011;43175;51.002;18.316;2023-12-14T13:24:42;55.40;;;23.40;;
57341;SDS011;43175;51.002;18.316;2023-12-14T13:27:08;53.10;;;20.80;;
57341;SDS011;43175;51.002;18.316;2023-12-14T13:29:34;57.50;;;23.20;;
57341;SDS011;43175;51.002;18.316;2023-12-14T13:32:00;60.80;;;23.20;;
57341;SDS011;43175;51.002;18.316;2023-12-14T13:34:27;60.00;;;22.60;;
57341;SDS011;43175;51.002;18.316;2023-12-14T13:36:53;72.10;;;24.10;;
57341;SDS011;43175;51.002;18.316;2023-12-14T13:39:20;66.50;;;24.40;;
57341;SDS011;43175;51.002;18.316;2023-12-14T13:41:45;66.80;;;24.10;;
57341;SDS011;43175;51.002;18.316;2023-12-14T13:44:11;68.90;;;24.10;;
57341;SDS011;43175;51.002;18.316;2023-12-14T13:46:40;78.90;;;26.00;;
57341;SDS011;43175;51.002;18.316;2023-12-14T13:49:06;82.80;;;28.40;;
57341;SDS011;43175;51.002;18.316;2023-12-14T13:51:31;71.80;;;27.80;;
57341;SDS011;43175;51.002;18.316;2023-12-14T13:53:57;73.90;;;26.20;;
57341;SDS011;43175;51.002;18.316;2023-12-14T13:56:23;91.30;;;30.40;;
57341;SDS011;43175;51.002;18.316;2023-12-14T13:58:49;72.80;;;26.20;;
57341;SDS011;43175;51.002;18.316;2023-12-14T14:01:15;80.30;;;28.00;;